Latest Weather Observations for Marree Airport

IDS60801

Issued at 4:35 pm CDT Saturday 1 November 2014 (issued every 30 minutes, with the page automatically refreshed every 10 minutes)

About weather observations | Map of weather stations | Latest weather observations for SA | Other Formats
Station Details ID: 017126 Name: MARREE AERO Lat: -29.66 Lon: 138.07 Height: 50.0 m
Data from the previous 72 hours. | See also: Recent months for locations in South Australia
Date/Time
CDT
Temp
°C
App
Temp
°C
Dew
Point
Rel
Hum
%
Delta-T
°C
Wind Press
QNH
hPa
Press
MSL
hPa
Rain
since 9 am
mm
Dir
 
Spd
km/h
Gust
km/h
Spd
kts
Gust
kts
01/04:32pm 26.7 17.4 -2.1 15 12.9 S 37 56 20 30 1014.9 - 0.0
01/04:30pm 26.5 16.7 -3.1 14 13.0 S 39 56 21 30 1014.9 - 0.0
01/04:00pm 26.8 17.1 -2.0 15 13.0 S 39 50 21 27 1015.0 - 0.0
01/03:30pm 26.7 17.0 -2.1 15 12.9 S 39 52 21 28 1015.1 - 0.0
01/03:00pm 26.5 17.2 -2.2 15 12.8 S 37 50 20 27 1015.4 1015.2 0.0
01/02:30pm 26.3 16.6 -2.4 15 12.8 S 39 52 21 28 1015.4 - 0.0
01/02:00pm 25.9 16.3 3.2 23 11.2 S 43 52 23 28 1015.6 - 0.0
01/01:30pm 24.7 16.1 4.5 27 10.1 S 39 50 21 27 1015.8 - 0.0
01/01:00pm 24.5 15.5 4.3 27 10.0 S 41 52 22 28 1015.9 - 0.0
01/12:30pm 24.4 15.5 5.2 29 9.7 S 41 56 22 30 1016.0 - 0.0
01/12:13pm 23.8 16.4 6.6 33 8.9 S 35 59 19 32 1015.8 - 0.0
01/12:00pm 23.0 14.1 6.7 35 8.4 S 43 57 23 31 1015.7 1015.5 0.0
01/11:30am 22.4 13.3 8.5 41 7.4 S 46 61 25 33 1015.1 - 0.0
01/11:00am 22.0 12.3 9.2 44 6.9 S 50 63 27 34 1015.2 - 0.0
01/10:30am 22.1 12.6 9.9 46 6.6 S 50 65 27 35 1015.1 - 0.0
01/10:00am 21.3 11.3 9.5 47 6.3 S 52 63 28 34 1014.9 - 0.0
01/09:30am 20.9 11.2 10.4 51 5.7 S 52 61 28 33 1014.5 - 0.0
01/09:00am 20.0 10.5 11.0 56 4.9 S 52 63 28 34 1014.0 1013.7 0.4
01/08:30am 19.3 10.2 11.1 59 4.5 S 50 63 27 34 1013.4 - 0.4
01/08:00am 18.8 11.5 11.6 63 4.0 SSW 41 48 22 26 1013.2 - 0.4
01/07:30am 18.8 12.0 12.1 65 3.7 S 39 48 21 26 1013.0 - 0.4
01/07:00am 19.5 13.6 13.7 69 3.3 SSW 37 46 20 25 1012.5 - 0.4
01/06:30am 20.3 15.8 15.5 74 2.9 SSW 33 44 18 24 1011.3 - 0.4
01/06:00am 20.3 14.6 15.3 73 3.0 S 39 50 21 27 1010.0 1009.8 0.4
01/05:30am 20.5 16.2 15.3 72 3.1 S 32 48 17 26 1009.6 - 0.4
01/05:28am 20.5 16.5 15.3 72 3.1 S 30 48 16 26 1009.5 - 0.4
01/05:00am 21.1 16.0 14.7 67 3.8 S 35 46 19 25 1008.7 - 0.4
01/04:30am 21.7 15.9 16.0 70 3.4 SSW 41 54 22 29 1007.2 - 0.4
01/04:22am 21.9 16.0 15.7 68 3.7 SSW 41 54 22 29 1007.0 - 0.4
01/04:00am 21.8 19.6 17.0 74 2.9 SSW 24 30 13 16 1007.0 - 0.4
01/03:30am 21.4 21.1 16.4 73 3.0 NW 13 20 7 11 1006.8 - 0.4
01/03:00am 20.4 21.1 16.2 77 2.5 WNW 7 9 4 5 1006.5 1006.3 0.4
01/02:30am 20.8 19.7 16.4 76 2.7 S 17 20 9 11 1005.4 - 0.4
01/02:00am 21.5 22.0 16.5 73 3.0 SSE 9 15 5 8 1006.0 - 0.4
01/01:30am 21.9 20.5 16.6 72 3.2 SSE 19 30 10 16 1006.7 - 0.4
01/01:20am 22.2 19.1 16.5 70 3.5 S 28 43 15 23 1005.7 - 0.4
01/01:00am 22.5 20.8 15.8 66 4.0 S 19 24 10 13 1007.3 - 0.4
01/12:30am 23.0 19.9 15.6 63 4.5 SSE 26 33 14 18 1007.3 - 0.4
01/12:00am 23.7 19.7 15.2 59 5.1 SSW 30 39 16 21 1009.1 1008.9 0.4
 
Date/Time
CDT
Temp
°C
App
Temp
°C
Dew
Point
Rel
Hum
%
Delta-T
°C
Wind Press
QNH
hPa
Press
MSL
hPa
Rain
since 9 am
mm
Dir
 
Spd
km/h
Gust
km/h
Spd
kts
Gust
kts
31/11:30pm 23.9 18.4 15.7 60 5.0 SSW 39 52 21 28 1009.1 - 0.4
31/11:20pm 24.0 18.3 16.3 62 4.7 SW 41 50 22 27 1009.2 - 0.4
31/11:00pm 25.3 18.9 15.3 54 6.0 SSW 43 52 23 28 1008.4 - 0.4
31/10:30pm 26.5 19.8 14.6 48 7.1 SSW 43 57 23 31 1007.8 - 0.4
31/10:22pm 26.6 18.5 14.4 47 7.3 S 50 69 27 37 1006.4 - 0.4
31/10:00pm 26.4 18.8 15.8 52 6.5 S 50 70 27 38 1004.4 - 0.2
31/09:55pm 26.0 19.5 16.5 55 5.9 SSW 46 70 25 38 1004.2 - 0.2
31/09:47pm 25.9 20.1 18.3 63 4.8 SSW 46 98 25 53 1004.5 - 0.2
31/09:37pm 30.1 18.1 14.2 38 9.6 SSW 70 95 38 51 1003.0 - 0.2
31/09:36pm 30.7 25.6 13.0 33 10.5 SW 32 85 17 46 1003.4 - 0.2
31/09:35pm 31.3 26.8 12.6 31 11.1 SW 28 57 15 31 1003.6 - 0.2
31/09:30pm 31.8 27.2 11.0 28 12.1 SW 26 35 14 19 1002.9 - 0.2
31/09:00pm 34.3 29.2 4.0 15 16.0 N 20 24 11 13 1001.6 1001.5 0.2
31/08:30pm 33.3 29.7 5.0 17 15.0 NW 13 15 7 8 1001.4 - 0.2
31/08:00pm 34.9 31.0 5.4 16 15.9 NW 15 17 8 9 1001.2 - 0.2
31/07:30pm 36.3 31.3 4.6 14 17.0 WNW 20 26 11 14 1001.1 - 0.2
31/07:00pm 37.3 33.0 5.3 14 17.4 N 17 22 9 12 1000.9 - 0.2
31/06:30pm 37.5 32.9 5.5 14 17.5 N 19 24 10 13 1001.2 - 0.2
31/06:00pm 37.5 32.7 5.5 14 17.6 N 20 30 11 16 1001.5 1001.4 0.2
31/05:30pm 36.8 31.7 5.9 15 17.0 NNW 22 30 12 16 1001.7 - 0.2
31/05:00pm 37.4 32.0 6.4 15 17.2 NNW 24 35 13 19 1002.1 - 0.2
31/04:30pm 37.4 30.5 6.4 15 17.2 NNW 32 41 17 22 1002.6 - 0.2
31/04:12pm 38.1 31.5 6.0 14 17.8 NNW 30 54 16 29 1002.8 - 0.2
31/04:00pm 38.5 32.0 6.3 14 17.9 NNW 30 44 16 24 1003.1 - 0.2
31/03:55pm 37.6 31.5 6.6 15 17.3 NW 28 46 15 25 1003.2 - 0.2
31/03:30pm 37.7 31.6 6.6 15 17.3 WNW 28 41 15 22 1003.7 - 0.2
31/03:00pm 36.9 29.6 7.0 16 16.7 NW 35 44 19 24 1004.3 1004.2 0.2
31/02:38pm 37.1 29.6 6.2 15 17.1 NNW 35 50 19 27 1004.7 - 0.2
31/02:30pm 37.3 29.0 6.3 15 17.2 W 39 50 21 27 1004.8 - 0.2
31/02:06pm 37.2 31.2 7.2 16 16.8 NW 28 48 15 26 1005.3 - 0.2
31/02:00pm 37.1 31.1 7.1 16 16.8 NW 28 37 15 20 1005.4 - 0.2
31/01:45pm 35.9 29.5 7.0 17 16.1 NW 30 48 16 26 1005.8 - 0.2
31/01:30pm 36.2 29.5 7.3 17 16.2 NW 32 44 17 24 1005.9 - 0.2
31/01:00pm 35.7 29.3 6.9 17 16.0 NNW 30 43 16 23 1006.4 - 0.2
31/12:30pm 35.4 28.7 5.8 16 16.1 NNW 30 48 16 26 1007.0 - 0.2
31/12:28pm 35.6 29.0 5.9 16 16.2 NNW 30 48 16 26 1007.0 - 0.2
31/12:00pm 34.7 28.5 4.3 15 16.1 NNW 26 44 14 24 1007.4 1007.3 0.2
31/11:30am 34.2 28.7 5.7 17 15.4 NNW 24 35 13 19 1007.8 - 0.2
31/11:00am 34.4 29.1 5.0 16 15.7 NNW 22 35 12 19 1008.2 - 0.2
31/10:30am 33.5 28.4 3.3 15 15.6 N 19 33 10 18 1008.2 - 0.2
31/10:00am 32.0 27.9 2.1 15 15.0 NE 13 54 7 29 1008.3 - 0.2
31/09:52am 31.5 23.9 0.8 14 15.0 NNW 30 57 16 31 1008.3 - 0.2
31/09:30am 31.2 26.5 -1.5 12 15.4 N 13 17 7 9 1008.6 - 0.0
31/09:00am 29.2 24.3 -3.1 12 14.6 N 13 17 7 9 1008.7 1008.6 0.0
31/08:30am 28.5 24.0 -3.6 12 14.2 N 11 15 6 8 1008.7 - 0.0
31/08:00am 25.0 21.0 -2.5 16 12.1 N 9 11 5 6 1008.7 - 0.0
31/07:30am 23.3 19.4 -1.6 19 11.0 NNW 9 11 5 6 1008.7 - 0.0
31/07:00am 22.6 19.9 -2.2 19 10.7 W 2 6 1 3 1008.4 - 0.0
31/06:30am 21.4 17.0 -2.5 20 10.2 W 11 20 6 11 1008.1 - 0.0
31/06:00am 21.0 16.5 -3.5 19 10.2 SE 11 13 6 7 1007.3 1007.2 0.0
31/05:30am 22.0 17.2 -2.7 19 10.5 SSE 13 15 7 8 1007.6 - 0.0
31/05:00am 21.1 15.8 -3.4 19 10.2 SSE 15 15 8 8 1007.6 - 0.0
31/04:30am 22.0 16.7 -3.4 18 10.7 SSE 15 15 8 8 1007.5 - 0.0
31/04:00am 23.1 18.2 -3.3 17 11.3 SSE 13 15 7 8 1007.8 - 0.0
31/03:30am 22.7 18.2 -3.6 17 11.1 SE 11 13 6 7 1008.0 - 0.0
31/03:00am 23.9 20.4 -2.6 17 11.6 SSW 6 7 3 4 1008.2 1008.1 0.0
31/02:30am 24.1 20.7 -2.4 17 11.6 ESE 6 7 3 4 1008.6 - 0.0
31/02:00am 24.4 20.3 -3.0 16 11.9 SE 9 11 5 6 1008.5 - 0.0
31/01:30am 24.4 22.0 -3.0 16 11.9 CALM 0 0 0 0 1009.2 - 0.0
31/01:00am 25.5 23.1 -3.0 15 12.5 CALM 0 0 0 0 1009.8 - 0.0
31/12:30am 26.9 24.5 -2.8 14 13.2 CALM 0 0 0 0 1010.2 - 0.0
31/12:00am 27.4 25.0 -3.4 13 13.6 CALM 0 0 0 0 1010.6 1010.4 0.0
 
Date/Time
CDT
Temp
°C
App
Temp
°C
Dew
Point
Rel
Hum
%
Delta-T
°C
Wind Press
QNH
hPa
Press
MSL
hPa
Rain
since 9 am
mm
Dir
 
Spd
km/h
Gust
km/h
Spd
kts
Gust
kts
30/11:30pm 27.0 23.2 -3.7 13 13.4 WNW 7 9 4 5 1010.7 - 0.0
30/11:00pm 26.8 22.7 -2.9 14 13.2 NW 9 11 5 6 1010.7 - 0.0
30/10:30pm 27.7 23.6 -3.2 13 13.7 NNW 9 11 5 6 1010.7 - 0.0
30/10:00pm 28.2 23.8 -2.8 13 13.9 N 11 13 6 7 1010.9 - 0.0
30/09:30pm 28.6 23.3 -3.6 12 14.3 NW 15 15 8 8 1010.6 - 0.0
30/09:00pm 29.5 24.5 -4.0 11 14.9 NW 13 15 7 8 1010.3 1010.2 0.0
30/08:30pm 30.6 25.2 -4.5 10 15.6 NW 15 17 8 9 1010.3 - 0.0
30/08:00pm 31.6 25.9 -3.7 10 16.0 NW 17 20 9 11 1010.2 - 0.0
30/07:30pm 32.7 27.3 -4.3 9 16.8 NW 15 20 8 11 1010.0 - 0.0
30/07:00pm 33.8 28.9 -3.5 9 17.3 WNW 13 17 7 9 1009.9 - 0.0
30/06:30pm 34.7 29.7 -4.4 8 18.0 NW 13 20 7 11 1009.9 - 0.0
30/06:00pm 35.1 30.9 -4.1 8 18.2 NW 9 19 5 10 1009.8 1009.7 0.0
30/05:30pm 34.8 30.2 -4.3 8 18.0 N 11 20 6 11 1010.1 - 0.0
30/05:00pm 35.4 29.7 -3.8 8 18.3 NW 17 22 9 12 1010.2 - 0.0
30/04:30pm 35.3 30.0 -3.9 8 18.2 WSW 15 22 8 12 1010.2 - 0.0
30/04:00pm 35.6 31.4 -3.7 8 18.4 N 9 19 5 10 1010.5 - 0.0
30/03:30pm 35.8 29.7 -3.5 8 18.5 N 19 26 10 14 1010.8 - 0.0
30/03:00pm 35.6 30.7 -3.7 8 18.4 NNW 13 24 7 13 1011.2 1011.0 0.0
30/02:30pm 35.3 31.7 -3.9 8 18.2 WNW 6 11 3 6 1011.7 - 0.0
30/02:00pm 35.5 30.9 -3.8 8 18.3 NNE 11 19 6 10 1012.1 - 0.0
30/01:30pm 35.6 30.3 -3.7 8 18.4 W 15 26 8 14 1012.6 - 0.0
30/01:00pm 35.6 31.4 -3.7 8 18.4 NNW 9 22 5 12 1013.0 - 0.0
30/12:30pm 34.4 28.6 -4.6 8 17.8 NNE 17 28 9 15 1013.4 - 0.0
30/12:00pm 33.8 29.6 -3.5 9 17.3 NNW 9 22 5 12 1014.0 1013.8 0.0
30/11:30am 33.1 28.1 -4.0 9 17.0 NNE 13 20 7 11 1014.3 - 0.0
30/11:00am 32.6 27.4 -2.9 10 16.5 N 15 20 8 11 1014.7 - 0.0
30/10:30am 31.5 26.9 -3.8 10 16.0 N 11 17 6 9 1015.0 - 0.0
30/10:00am 30.1 25.2 -3.6 11 15.2 NNE 13 19 7 10 1015.0 - 0.0
30/09:30am 28.0 23.9 -3.0 13 13.9 NNE 9 13 5 7 1015.1 - 0.0
30/09:00am 25.9 21.7 -3.6 14 12.8 ENE 9 13 5 7 1015.2 1015.1 0.0
30/08:30am 23.2 18.4 -2.4 18 11.1 ESE 13 17 7 9 1014.8 - 0.0
30/08:00am 21.8 16.3 -2.1 20 10.3 SSE 17 19 9 10 1014.9 - 0.0
30/07:30am 18.2 12.9 -3.2 23 8.7 SSE 15 19 8 10 1014.7 - 0.0
30/07:00am 17.0 11.6 -4.8 22 8.5 SSE 15 17 8 9 1014.1 - 0.0
30/06:30am 16.7 12.4 -5.1 22 8.4 SSE 9 13 5 7 1013.8 - 0.0
30/06:00am 16.6 11.1 -5.2 22 8.4 SE 15 17 8 9 1013.4 1013.2 0.0
30/05:30am 17.5 11.6 -5.7 20 8.9 SSE 17 19 9 10 1013.5 - 0.0
30/05:00am 17.8 12.3 -5.4 20 9.0 SSE 15 17 8 9 1013.4 - 0.0
30/04:30am 17.1 11.2 -6.0 20 8.8 SE 17 19 9 10 1013.3 - 0.0
30/04:00am 17.6 12.1 -5.6 20 8.9 SSE 15 17 8 9 1013.4 - 0.0
30/03:30am 18.3 13.9 -5.7 19 9.3 S 9 11 5 6 1013.6 - 0.0
30/03:00am 18.5 13.4 -5.5 19 9.4 S 13 15 7 8 1013.7 1013.5 0.0
30/02:30am 18.7 14.0 -5.4 19 9.4 S 11 13 6 7 1014.0 - 0.0
30/02:00am 19.1 14.4 -5.0 19 9.6 S 11 11 6 6 1014.4 - 0.0
30/01:30am 20.8 16.1 -5.1 17 10.4 S 11 13 6 7 1014.8 - 0.0
30/01:00am 20.9 15.1 -4.3 18 10.3 S 17 19 9 10 1015.0 - 0.0
30/12:30am 21.7 17.1 -4.4 17 10.7 S 11 15 6 8 1015.2 - 0.0
30/12:00am 22.3 17.3 -3.9 17 10.9 S 13 17 7 9 1015.4 1015.3 0.0
 
Date/Time
CDT
Temp
°C
App
Temp
°C
Dew
Point
Rel
Hum
%
Delta-T
°C
Wind Press
QNH
hPa
Press
MSL
hPa
Rain
since 9 am
mm
Dir
 
Spd
km/h
Gust
km/h
Spd
kts
Gust
kts
29/11:30pm 23.1 18.5 -4.1 16 11.4 SSW 11 15 6 8 1015.5 - 0.0
29/11:00pm 24.3 18.6 -4.0 15 12.0 SW 17 19 9 10 1015.3 - 0.0
29/10:30pm 24.6 19.7 -3.7 15 12.1 WSW 13 15 7 8 1015.2 - 0.0
29/10:00pm 25.8 21.2 -3.7 14 12.8 SSW 11 13 6 7 1015.1 - 0.0
29/09:30pm 27.2 22.3 -3.6 13 13.5 WNW 13 15 7 8 1014.8 - 0.0
29/09:00pm 28.1 22.4 -3.9 12 14.1 WNW 17 19 9 10 1014.7 1014.6 0.0
29/08:30pm 28.9 23.3 -3.3 12 14.4 WNW 17 22 9 12 1014.7 - 0.0
29/08:00pm 30.1 25.9 -3.6 11 15.2 NW 9 9 5 5 1014.4 - 0.0
29/07:30pm 31.5 27.7 -3.8 10 16.0 NW 7 9 4 5 1014.2 - 0.0
29/07:00pm 33.0 29.9 -2.6 10 16.6 NW 4 9 2 5 1013.9 - 0.0
29/06:30pm 33.4 29.8 -3.7 9 17.1 WSW 6 17 3 9 1013.8 - 0.0
29/06:00pm 33.8 29.3 -3.5 9 17.3 NW 11 17 6 9 1013.8 1013.6 0.0
29/05:30pm 34.0 29.1 -3.3 9 17.4 WNW 13 19 7 10 1013.6 - 0.0
29/05:00pm 33.5 29.5 -2.3 10 16.9 ENE 9 13 5 7 1013.8 - 0.0

Other Formats:

Comma delimited format used in spreadsheet applications
http://www.bom.gov.au/fwo/IDS60801/IDS60801.95480.axf

JavaScript Object Notation format (JSON) in row-major order
http://www.bom.gov.au/fwo/IDS60801/IDS60801.95480.json